Time;durP1;ratioP1;P1;durP2;ratioP2;P2;SDS_P1;SDS_P2;PMS_P1;PMS_P2;Temp;Humidity;BMP_temperature;BMP_pressure;BME280_temperature;BME280_humidity;BME280_pressure;Samples;Min_cycle;Max_cycle;Signal;HPM_P1;HPM_P2
2022/10/28 00:01:23;;;;;;;12.32;5.63;;;;;;;;;;6232608;23;20004;-80
2022/10/28 00:03:51;;;;;;;11.55;5.38;;;;;;;;;;6244993;23;20015;-80
2022/10/28 00:06:18;;;;;;;15.63;5.55;;;;;;;;;;6243163;23;20019;-79
2022/10/28 00:08:44;;;;;;;10.13;5.75;;;;;;;;;;6218016;23;20094;-81
2022/10/28 00:11:12;;;;;;;15.63;5.47;;;;;;;;;;6193866;23;20008;-81
2022/10/28 00:13:40;;;;;;;17.30;6.00;;;;;;;;;;6217837;23;20419;-80
2022/10/28 00:16:08;;;;;;;18.67;5.70;;;;;;;;;;6195999;23;19996;-80
2022/10/28 00:18:34;;;;;;;9.85;5.65;;;;;;;;;;6225037;23;20000;-80
2022/10/28 00:21:01;;;;;;;10.07;5.60;;;;;;;;;;6244809;23;20443;-80
2022/10/28 00:23:27;;;;;;;17.77;6.63;;;;;;;;;;6218414;23;20423;-80
2022/10/28 00:25:52;;;;;;;15.85;6.40;;;;;;;;;;6218439;23;19999;-81
2022/10/28 00:28:18;;;;;;;13.27;6.97;;;;;;;;;;6217696;23;20041;-80
2022/10/28 00:30:43;;;;;;;14.52;6.50;;;;;;;;;;6243849;23;20004;-80
2022/10/28 00:33:09;;;;;;;13.80;7.03;;;;;;;;;;6244341;23;20114;-80
2022/10/28 00:35:35;;;;;;;13.65;7.03;;;;;;;;;;6217733;23;20435;-80
2022/10/28 00:38:00;;;;;;;13.50;6.10;;;;;;;;;;6244961;23;20077;-81
2022/10/28 00:40:25;;;;;;;10.18;6.10;;;;;;;;;;6218034;23;20000;-80
2022/10/28 00:42:51;;;;;;;14.70;6.13;;;;;;;;;;6245107;23;20414;-81
2022/10/28 00:45:17;;;;;;;15.75;7.03;;;;;;;;;;6244684;23;19996;-81
2022/10/28 00:47:57;;;;;;;11.90;6.72;;;;;;;;;;6242577;23;20032;-80
2022/10/28 00:50:41;;;;;;;14.85;7.20;;;;;;;;;;6192754;23;20004;-81
2022/10/28 00:53:21;;;;;;;18.77;7.28;;;;;;;;;;6243711;23;20083;-81
2022/10/28 00:55:47;;;;;;;14.48;7.63;;;;;;;;;;6217803;23;20058;-81
2022/10/28 00:58:12;;;;;;;18.27;8.40;;;;;;;;;;6221478;23;20437;-81
2022/10/28 01:00:38;;;;;;;15.45;7.60;;;;;;;;;;6218209;23;19996;-81
2022/10/28 01:03:03;;;;;;;21.63;8.02;;;;;;;;;;6244342;23;20004;-80
2022/10/28 01:05:30;;;;;;;21.77;7.38;;;;;;;;;;6217603;23;20008;-81
2022/10/28 01:08:34;;;;;;;13.73;7.22;;;;;;;;;;6192273;23;20004;-81
2022/10/28 01:11:52;;;;;;;16.08;7.85;;;;;;;;;;6193935;23;20004;-81
2022/10/28 01:14:55;;;;;;;18.63;8.82;;;;;;;;;;6181367;23;20013;-81
2022/10/28 01:18:03;;;;;;;21.98;8.60;;;;;;;;;;6210876;23;20012;-80
2022/10/28 01:20:47;;;;;;;18.30;8.50;;;;;;;;;;6221180;23;20004;-80
2022/10/28 01:23:38;;;;;;;23.38;9.02;;;;;;;;;;6234776;23;20521;-81
2022/10/28 01:26:25;;;;;;;16.15;7.63;;;;;;;;;;6187440;23;20420;-80
2022/10/28 01:28:51;;;;;;;15.48;7.88;;;;;;;;;;6186884;23;20003;-80
2022/10/28 01:31:22;;;;;;;16.88;8.07;;;;;;;;;;6213496;23;20028;-80
2022/10/28 01:34:10;;;;;;;13.73;6.80;;;;;;;;;;6213703;23;20005;-81
2022/10/28 01:36:51;;;;;;;16.65;7.25;;;;;;;;;;6195142;23;20441;-80
2022/10/28 01:39:58;;;;;;;20.42;7.18;;;;;;;;;;6218076;23;20344;-81
2022/10/28 01:42:44;;;;;;;15.43;6.40;;;;;;;;;;6213710;23;20431;-81
2022/10/28 01:45:15;;;;;;;17.20;6.50;;;;;;;;;;6187602;23;20032;-81
2022/10/28 01:47:57;;;;;;;13.55;6.43;;;;;;;;;;6213931;23;20016;-80
2022/10/28 01:50:45;;;;;;;16.42;6.20;;;;;;;;;;6163606;23;20008;-81
2022/10/28 01:53:12;;;;;;;12.65;6.13;;;;;;;;;;6213462;23;20005;-80
2022/10/28 01:55:40;;;;;;;14.38;6.50;;;;;;;;;;6163537;23;20001;-80
2022/10/28 01:58:08;;;;;;;12.60;5.88;;;;;;;;;;6164023;23;20001;-80
2022/10/28 02:01:10;;;;;;;14.13;5.95;;;;;;;;;;6163235;23;19996;-81
2022/10/28 02:03:36;;;;;;;11.15;5.97;;;;;;;;;;6188612;23;20008;-81
2022/10/28 02:06:06;;;;;;;11.68;5.90;;;;;;;;;;6215755;23;20036;-81
2022/10/28 02:09:19;;;;;;;14.05;6.07;;;;;;;;;;6188872;23;20001;-80
2022/10/28 02:12:09;;;;;;;9.95;5.70;;;;;;;;;;6191592;23;20058;-80
2022/10/28 02:14:53;;;;;;;15.95;6.03;;;;;;;;;;6227158;23;19996;-78
2022/10/28 02:17:20;;;;;;;11.07;5.30;;;;;;;;;;6217701;23;20001;-80
2022/10/28 02:20:09;;;;;;;13.27;6.10;;;;;;;;;;6189475;23;20007;-80
2022/10/28 02:22:54;;;;;;;11.43;5.90;;;;;;;;;;6189270;23;20016;-81
2022/10/28 02:25:53;;;;;;;16.35;6.68;;;;;;;;;;6188851;23;20411;-80
2022/10/28 02:28:44;;;;;;;14.27;6.50;;;;;;;;;;6160911;23;20355;-80
2022/10/28 02:31:26;;;;;;;13.13;6.38;;;;;;;;;;6181899;23;20008;-80
2022/10/28 02:33:54;;;;;;;11.82;6.75;;;;;;;;;;6189357;23;20058;-80
2022/10/28 02:36:21;;;;;;;21.25;7.57;;;;;;;;;;6164479;23;20035;-79
2022/10/28 02:38:48;;;;;;;15.95;8.50;;;;;;;;;;6220035;23;20041;-80
2022/10/28 02:41:25;;;;;;;29.75;12.15;;;;;;;;;;6189377;23;20001;-79
2022/10/28 02:43:54;;;;;;;25.58;10.18;;;;;;;;;;6164842;23;20036;-80
2022/10/28 02:46:19;;;;;;;15.85;7.45;;;;;;;;;;6215258;23;20050;-81
2022/10/28 02:48:52;;;;;;;28.65;9.27;;;;;;;;;;6215457;23;20375;-81
2022/10/28 02:51:20;;;;;;;21.10;9.35;;;;;;;;;;6188478;23;20004;-80
2022/10/28 02:54:01;;;;;;;22.63;10.35;;;;;;;;;;6163693;23;20012;-80
2022/10/28 02:56:28;;;;;;;19.48;10.10;;;;;;;;;;6164491;23;19993;-81
2022/10/28 02:58:53;;;;;;;27.48;12.38;;;;;;;;;;6193165;23;20008;-81
2022/10/28 03:01:19;;;;;;;21.98;12.07;;;;;;;;;;6215797;23;20079;-80
2022/10/28 03:03:44;;;;;;;33.80;12.52;;;;;;;;;;6188981;23;20020;-81
2022/10/28 03:06:10;;;;;;;26.80;12.45;;;;;;;;;;6215141;23;20402;-81
2022/10/28 03:08:36;;;;;;;29.17;13.07;;;;;;;;;;6214732;23;20027;-80
2022/10/28 03:11:01;;;;;;;39.95;13.18;;;;;;;;;;6188644;23;20051;-81
2022/10/28 03:13:27;;;;;;;31.23;13.55;;;;;;;;;;6188330;23;20047;-80
2022/10/28 03:15:52;;;;;;;27.13;13.10;;;;;;;;;;6187882;23;20035;-81
2022/10/28 03:18:18;;;;;;;28.25;13.68;;;;;;;;;;6193008;23;20000;-81
2022/10/28 03:20:44;;;;;;;32.88;13.70;;;;;;;;;;6216422;23;20036;-80
2022/10/28 03:23:10;;;;;;;28.27;13.95;;;;;;;;;;6163423;23;20043;-80
2022/10/28 03:25:35;;;;;;;34.80;15.13;;;;;;;;;;6188583;23;20043;-80
2022/10/28 03:28:01;;;;;;;33.92;15.25;;;;;;;;;;6215908;23;19996;-80
2022/10/28 03:30:26;;;;;;;34.83;15.73;;;;;;;;;;6214544;23;20019;-81
2022/10/28 03:32:52;;;;;;;32.55;15.55;;;;;;;;;;6214605;23;20428;-79
2022/10/28 03:35:17;;;;;;;38.58;16.58;;;;;;;;;;6214729;23;20399;-81
2022/10/28 03:37:43;;;;;;;33.97;16.00;;;;;;;;;;6217035;23;20083;-80
2022/10/28 03:40:09;;;;;;;34.53;16.30;;;;;;;;;;6196948;23;20076;-81
2022/10/28 03:42:35;;;;;;;34.85;16.55;;;;;;;;;;6188698;23;20421;-80
2022/10/28 03:45:01;;;;;;;35.80;17.23;;;;;;;;;;6215169;23;20010;-80
2022/10/28 03:47:29;;;;;;;36.13;16.35;;;;;;;;;;6188559;23;20059;-79
2022/10/28 03:49:55;;;;;;;33.00;16.85;;;;;;;;;;6188656;23;20079;-80
2022/10/28 03:52:20;;;;;;;41.90;17.05;;;;;;;;;;6214174;23;20005;-81
2022/10/28 03:54:46;;;;;;;33.90;16.55;;;;;;;;;;6214652;23;20102;-79
2022/10/28 03:57:11;;;;;;;34.97;16.65;;;;;;;;;;6214418;23;20156;-81
2022/10/28 03:59:37;;;;;;;76.40;29.50;;;;;;;;;;6195714;23;20012;-80
2022/10/28 04:02:02;;;;;;;99.82;38.22;;;;;;;;;;6188437;23;20480;-79
2022/10/28 04:04:28;;;;;;;94.03;37.03;;;;;;;;;;6188518;23;20005;-79
2022/10/28 04:06:53;;;;;;;84.82;34.45;;;;;;;;;;6187900;23;20022;-79
2022/10/28 04:09:18;;;;;;;64.25;27.13;;;;;;;;;;6214945;23;20012;-78
2022/10/28 04:11:47;;;;;;;47.22;22.70;;;;;;;;;;6187539;23;20083;-78
2022/10/28 04:14:13;;;;;;;44.60;19.70;;;;;;;;;;6214284;23;20004;-78
2022/10/28 04:16:38;;;;;;;43.22;20.20;;;;;;;;;;6214079;23;20130;-78
2022/10/28 04:19:04;;;;;;;48.28;21.52;;;;;;;;;;6214901;23;20036;-78
2022/10/28 04:21:29;;;;;;;48.28;20.40;;;;;;;;;;6214130;23;20008;-78
2022/10/28 04:23:55;;;;;;;43.53;21.45;;;;;;;;;;6214355;23;20032;-78
2022/10/28 04:26:20;;;;;;;49.88;22.20;;;;;;;;;;6213927;23;20001;-78
2022/10/28 04:28:46;;;;;;;48.03;21.77;;;;;;;;;;6213214;23;20005;-78
2022/10/28 04:31:11;;;;;;;52.92;20.08;;;;;;;;;;6213882;23;20000;-78
2022/10/28 04:33:37;;;;;;;45.55;20.33;;;;;;;;;;6214218;23;20005;-78
2022/10/28 04:36:03;;;;;;;41.60;20.42;;;;;;;;;;6213506;23;20025;-78
2022/10/28 04:38:28;;;;;;;42.65;21.35;;;;;;;;;;6218222;23;20027;-78
2022/10/28 04:40:54;;;;;;;39.63;19.83;;;;;;;;;;6216975;23;20036;-78
2022/10/28 04:43:19;;;;;;;42.50;20.67;;;;;;;;;;6187176;23;20001;-78
2022/10/28 04:45:46;;;;;;;42.03;20.33;;;;;;;;;;6213392;23;20035;-77
2022/10/28 04:48:11;;;;;;;50.90;21.80;;;;;;;;;;6184922;23;20005;-79
2022/10/28 04:50:37;;;;;;;48.70;21.50;;;;;;;;;;6212713;23;20058;-78
2022/10/28 04:53:02;;;;;;;47.63;21.35;;;;;;;;;;6212115;23;20024;-77
2022/10/28 04:55:28;;;;;;;58.78;21.42;;;;;;;;;;6185324;23;20008;-76
2022/10/28 04:58:01;;;;;;;53.20;20.58;;;;;;;;;;6213238;23;20001;-77
2022/10/28 05:00:30;;;;;;;56.17;21.42;;;;;;;;;;6184501;23;20039;-77
2022/10/28 05:03:08;;;;;;;48.60;21.37;;;;;;;;;;6186313;23;20246;-77
2022/10/28 05:05:34;;;;;;;114.72;25.33;;;;;;;;;;6209359;23;20000;-77
2022/10/28 05:08:00;;;;;;;43.17;20.50;;;;;;;;;;6183801;23;20032;-77
2022/10/28 05:10:30;;;;;;;60.47;20.63;;;;;;;;;;6211181;23;20052;-77
2022/10/28 05:12:55;;;;;;;63.28;21.83;;;;;;;;;;6212053;23;20032;-76
2022/10/28 05:15:21;;;;;;;46.17;19.33;;;;;;;;;;6210253;23;20574;-76
2022/10/28 05:17:49;;;;;;;40.33;18.00;;;;;;;;;;6208355;23;20119;-76
2022/10/28 05:20:16;;;;;;;41.80;17.20;;;;;;;;;;6185638;23;20015;-75
2022/10/28 05:22:49;;;;;;;34.92;16.25;;;;;;;;;;6182184;23;20004;-78
2022/10/28 05:25:17;;;;;;;46.38;16.63;;;;;;;;;;6208106;23;20008;-78
2022/10/28 05:27:43;;;;;;;57.47;16.83;;;;;;;;;;6182437;23;20001;-76
2022/10/28 05:30:15;;;;;;;43.20;17.08;;;;;;;;;;6209066;23;20091;-76
2022/10/28 05:32:42;;;;;;;42.97;16.73;;;;;;;;;;6183315;23;20005;-74
2022/10/28 05:35:08;;;;;;;46.75;17.45;;;;;;;;;;6211071;23;20012;-76
2022/10/28 05:37:36;;;;;;;47.10;17.83;;;;;;;;;;6210898;23;20000;-78
2022/10/28 05:40:05;;;;;;;48.55;18.17;;;;;;;;;;6186117;23;20082;-77
2022/10/28 05:42:31;;;;;;;38.85;16.67;;;;;;;;;;6211756;23;20602;-76
2022/10/28 05:44:56;;;;;;;38.65;16.38;;;;;;;;;;6159988;23;19996;-76
2022/10/28 05:47:22;;;;;;;69.95;17.27;;;;;;;;;;6211655;23;20339;-74
2022/10/28 05:49:51;;;;;;;115.93;18.63;;;;;;;;;;6214133;23;20410;-77
2022/10/28 05:52:46;;;;;;;49.72;16.00;;;;;;;;;;6206033;23;20016;-77
2022/10/28 05:55:12;;;;;;;86.10;16.88;;;;;;;;;;6184100;23;20001;-77
2022/10/28 05:57:38;;;;;;;37.92;15.13;;;;;;;;;;6207895;23;20016;-78
2022/10/28 06:00:04;;;;;;;70.57;16.15;;;;;;;;;;6200002;23;20103;-76
2022/10/28 06:02:30;;;;;;;69.32;16.63;;;;;;;;;;6209791;23;20011;-76
2022/10/28 06:05:18;;;;;;;57.47;16.55;;;;;;;;;;6211290;23;20229;-77
2022/10/28 06:07:44;;;;;;;42.35;15.70;;;;;;;;;;6190521;23;20008;-78
2022/10/28 06:10:22;;;;;;;34.72;15.43;;;;;;;;;;6212525;23;20112;-75
2022/10/28 06:12:52;;;;;;;51.38;15.82;;;;;;;;;;6191334;23;19999;-77
2022/10/28 06:15:26;;;;;;;33.30;15.32;;;;;;;;;;6181140;23;20009;-75
2022/10/28 06:17:52;;;;;;;40.80;15.05;;;;;;;;;;6179219;23;20040;-76
2022/10/28 06:20:21;;;;;;;43.08;15.18;;;;;;;;;;6206084;23;20011;-77
2022/10/28 06:22:53;;;;;;;37.50;15.07;;;;;;;;;;6209021;23;20056;-76
2022/10/28 06:25:19;;;;;;;40.50;15.52;;;;;;;;;;6211815;23;20053;-76
2022/10/28 06:27:45;;;;;;;44.83;16.13;;;;;;;;;;6185905;23;20492;-75
2022/10/28 06:30:15;;;;;;;38.00;15.10;;;;;;;;;;6187425;23;20104;-75
2022/10/28 06:32:50;;;;;;;32.95;15.98;;;;;;;;;;6210633;23;20000;-76
2022/10/28 06:35:25;;;;;;;33.00;17.05;;;;;;;;;;6209131;23;20001;-77
2022/10/28 06:38:00;;;;;;;34.13;14.73;;;;;;;;;;6162110;23;20028;-79
2022/10/28 06:40:40;;;;;;;24.48;13.80;;;;;;;;;;6182314;23;19996;-77
2022/10/28 06:43:06;;;;;;;26.00;12.85;;;;;;;;;;6182037;23;20032;-78
2022/10/28 06:45:33;;;;;;;23.63;12.65;;;;;;;;;;6181553;23;20531;-77
2022/10/28 06:48:00;;;;;;;25.40;12.82;;;;;;;;;;6210555;23;20012;-79
2022/10/28 06:50:28;;;;;;;22.10;12.27;;;;;;;;;;6183030;23;20004;-79
2022/10/28 06:52:55;;;;;;;25.55;12.27;;;;;;;;;;6159898;23;20462;-78
2022/10/28 06:55:21;;;;;;;30.95;12.90;;;;;;;;;;6185236;23;20019;-79
2022/10/28 06:57:47;;;;;;;26.85;12.77;;;;;;;;;;6185359;23;20130;-78
2022/10/28 07:00:19;;;;;;;25.20;11.85;;;;;;;;;;6213926;23;20015;-78
2022/10/28 07:02:59;;;;;;;21.73;12.02;;;;;;;;;;6161945;23;20719;-79
2022/10/28 07:05:25;;;;;;;20.35;10.98;;;;;;;;;;6186758;23;20059;-78
2022/10/28 07:07:51;;;;;;;28.92;11.95;;;;;;;;;;6215105;23;20060;-78
2022/10/28 07:10:16;;;;;;;26.42;11.90;;;;;;;;;;6158434;23;20016;-78
2022/10/28 07:12:42;;;;;;;34.83;12.77;;;;;;;;;;6158449;23;20317;-78
2022/10/28 07:15:08;;;;;;;30.10;12.00;;;;;;;;;;6158193;23;20016;-79
2022/10/28 07:17:34;;;;;;;23.90;13.07;;;;;;;;;;6159866;23;20005;-79
2022/10/28 07:19:59;;;;;;;24.27;11.88;;;;;;;;;;6215783;23;20064;-80
2022/10/28 07:22:25;;;;;;;26.05;11.57;;;;;;;;;;6220975;23;19997;-87
2022/10/28 07:24:53;;;;;;;28.70;11.38;;;;;;;;;;6197984;23;20012;-85
2022/10/28 07:27:19;;;;;;;18.10;11.00;;;;;;;;;;6164894;23;20008;-81
2022/10/28 07:29:45;;;;;;;34.60;12.35;;;;;;;;;;6188507;23;20015;-81
2022/10/28 07:32:10;;;;;;;18.95;10.30;;;;;;;;;;6212097;23;20008;-82
2022/10/28 07:34:36;;;;;;;26.35;11.18;;;;;;;;;;6214673;23;20016;-78
2022/10/28 07:37:03;;;;;;;33.90;11.30;;;;;;;;;;6217486;23;20395;-81
2022/10/28 07:39:29;;;;;;;16.95;10.00;;;;;;;;;;6197781;23;20047;-80
2022/10/28 07:41:54;;;;;;;20.13;9.70;;;;;;;;;;6167828;23;20028;-81
2022/10/28 07:44:20;;;;;;;19.25;9.80;;;;;;;;;;6163295;23;20016;-80
2022/10/28 07:46:45;;;;;;;21.63;9.55;;;;;;;;;;6240142;23;20020;-79
2022/10/28 07:49:11;;;;;;;26.00;9.80;;;;;;;;;;6209898;23;20034;-79
2022/10/28 07:51:37;;;;;;;21.15;10.02;;;;;;;;;;6209241;23;20019;-81
2022/10/28 07:54:02;;;;;;;21.85;10.98;;;;;;;;;;6209302;23;19997;-81
2022/10/28 07:56:28;;;;;;;23.50;11.27;;;;;;;;;;6208269;23;20034;-80
2022/10/28 07:58:53;;;;;;;32.80;10.55;;;;;;;;;;6184534;23;20004;-82
2022/10/28 08:01:20;;;;;;;24.20;11.00;;;;;;;;;;6185063;23;20005;-84
2022/10/28 08:03:46;;;;;;;24.20;11.63;;;;;;;;;;6187064;23;20008;-81
2022/10/28 08:06:19;;;;;;;27.23;11.57;;;;;;;;;;6210872;23;20008;-78
2022/10/28 08:08:46;;;;;;;22.17;10.98;;;;;;;;;;6213540;23;20495;-80
2022/10/28 08:11:17;;;;;;;23.30;11.27;;;;;;;;;;6184070;23;20013;-80
2022/10/28 08:13:43;;;;;;;20.77;11.25;;;;;;;;;;6210224;23;20032;-80
2022/10/28 08:16:08;;;;;;;61.00;33.80;;;;;;;;;;6211927;23;20539;-80
2022/10/28 08:18:35;;;;;;;51.38;29.73;;;;;;;;;;6213857;23;20000;-81
2022/10/28 08:21:02;;;;;;;33.22;12.95;;;;;;;;;;6162959;23;20332;-82
2022/10/28 08:23:33;;;;;;;22.05;11.13;;;;;;;;;;6212478;23;20004;-81
2022/10/28 08:25:59;;;;;;;23.58;11.73;;;;;;;;;;6214501;23;19997;-81
2022/10/28 08:28:36;;;;;;;21.85;11.27;;;;;;;;;;6211459;23;20010;-81
2022/10/28 08:31:02;;;;;;;26.75;11.57;;;;;;;;;;6188439;23;20008;-81
2022/10/28 08:33:31;;;;;;;27.77;13.10;;;;;;;;;;6212086;23;20028;-79
2022/10/28 08:35:56;;;;;;;20.70;11.65;;;;;;;;;;6214067;23;20015;-79
2022/10/28 08:38:22;;;;;;;25.13;13.65;;;;;;;;;;6168720;23;19996;-81
2022/10/28 08:41:35;;;;;;;31.80;15.85;;;;;;;;;;6215517;23;20410;-81
2022/10/28 08:44:21;;;;;;;31.38;15.35;;;;;;;;;;6215971;23;20004;-81
2022/10/28 08:47:31;;;;;;;20.00;12.02;;;;;;;;;;6216716;23;20028;-81
2022/10/28 08:50:10;;;;;;;29.42;13.43;;;;;;;;;;6207710;23;20389;-81
2022/10/28 08:52:56;;;;;;;33.22;13.23;;;;;;;;;;6164327;23;20092;-82
2022/10/28 08:55:46;;;;;;;25.88;13.25;;;;;;;;;;6193711;23;20088;-79
2022/10/28 08:58:30;;;;;;;31.55;13.25;;;;;;;;;;6224992;23;19997;-79
2022/10/28 09:00:56;;;;;;;28.02;13.48;;;;;;;;;;6214625;23;19997;-81
2022/10/28 09:03:26;;;;;;;26.05;13.55;;;;;;;;;;6189743;23;19996;-80
2022/10/28 09:06:19;;;;;;;23.80;13.70;;;;;;;;;;6228306;22;20108;-88
2022/10/28 09:08:47;;;;;;;29.65;13.93;;;;;;;;;;6261432;22;20030;-88
2022/10/28 09:15:19;;;;;;;28.75;15.07;;;;;;;;;;6246474;23;20054;-89
2022/10/28 09:17:52;;;;;;;33.38;16.27;;;;;;;;;;6265699;23;20537;-90
2022/10/28 09:20:52;;;;;;;31.85;16.98;;;;;;;;;;6243142;23;20023;-87
2022/10/28 09:23:38;;;;;;;35.08;16.35;;;;;;;;;;6239941;23;20015;-89
2022/10/28 09:27:00;;;;;;;33.47;17.33;;;;;;;;;;6232488;23;20015;-87
2022/10/28 09:29:39;;;;;;;32.47;17.92;;;;;;;;;;6237758;22;20094;-83
2022/10/28 09:35:19;;;;;;;34.15;17.88;;;;;;;;;;6265131;22;20045;-87
2022/10/28 09:38:15;;;;;;;33.58;17.35;;;;;;;;;;6267986;22;19999;-88
2022/10/28 09:41:07;;;;;;;51.20;18.27;;;;;;;;;;6274827;22;20020;-87
2022/10/28 09:43:39;;;;;;;33.45;17.48;;;;;;;;;;6256923;23;20340;-84
2022/10/28 09:48:53;;;;;;;33.00;15.93;;;;;;;;;;6257812;22;20016;-87
2022/10/28 09:51:24;;;;;;;35.00;16.60;;;;;;;;;;6240330;23;20024;-87
2022/10/28 09:53:59;;;;;;;29.65;15.30;;;;;;;;;;6264206;22;20000;-88
2022/10/28 09:56:26;;;;;;;39.90;15.35;;;;;;;;;;6266482;22;20004;-89
2022/10/28 10:01:53;;;;;;;21.58;11.90;;;;;;;;;;6186434;23;20016;-84
2022/10/28 10:04:27;;;;;;;26.67;14.18;;;;;;;;;;6232462;23;20007;-87
2022/10/28 10:06:56;;;;;;;30.88;14.63;;;;;;;;;;6257016;23;20092;-82
2022/10/28 10:09:31;;;;;;;26.90;13.40;;;;;;;;;;6217747;23;20004;-82
2022/10/28 10:12:04;;;;;;;26.30;12.32;;;;;;;;;;6244707;22;20004;-82
2022/10/28 10:14:44;;;;;;;26.15;12.30;;;;;;;;;;6242989;23;20008;-82
2022/10/28 10:17:29;;;;;;;24.98;11.30;;;;;;;;;;6193559;23;20355;-82
2022/10/28 10:19:58;;;;;;;24.92;11.93;;;;;;;;;;6220703;23;20336;-83
2022/10/28 10:22:29;;;;;;;23.93;12.57;;;;;;;;;;6248067;23;20012;-83
2022/10/28 10:24:54;;;;;;;32.72;14.13;;;;;;;;;;6220005;23;20335;-84
2022/10/28 10:27:20;;;;;;;26.73;12.45;;;;;;;;;;6220926;23;20000;-84
2022/10/28 10:29:50;;;;;;;27.50;12.55;;;;;;;;;;6263759;23;20004;-82
2022/10/28 10:32:26;;;;;;;33.10;11.95;;;;;;;;;;6230841;23;20060;-80
2022/10/28 10:35:07;;;;;;;24.63;12.88;;;;;;;;;;6232807;23;20007;-82
2022/10/28 10:37:33;;;;;;;37.75;13.15;;;;;;;;;;6239848;23;20004;-84
2022/10/28 10:40:11;;;;;;;21.70;11.43;;;;;;;;;;6235579;23;20011;-81
2022/10/28 10:42:37;;;;;;;27.30;12.77;;;;;;;;;;6250387;22;20007;-83
2022/10/28 10:45:21;;;;;;;23.05;12.27;;;;;;;;;;6219813;23;20332;-82
2022/10/28 10:47:46;;;;;;;26.27;11.45;;;;;;;;;;6196941;23;20014;-82
2022/10/28 10:50:29;;;;;;;30.42;13.10;;;;;;;;;;6245421;23;20004;-82
2022/10/28 10:52:56;;;;;;;25.95;11.13;;;;;;;;;;6245716;22;20004;-81
2022/10/28 10:55:38;;;;;;;26.70;10.90;;;;;;;;;;6219699;23;20002;-83
2022/10/28 10:58:04;;;;;;;28.17;11.63;;;;;;;;;;6243328;23;20004;-83
2022/10/28 11:00:35;;;;;;;27.30;12.05;;;;;;;;;;6246107;22;20445;-81
2022/10/28 11:03:00;;;;;;;33.50;13.73;;;;;;;;;;6249941;23;20039;-82
2022/10/28 11:05:26;;;;;;;32.33;12.82;;;;;;;;;;6270003;22;20004;-82
2022/10/28 11:07:51;;;;;;;25.38;12.68;;;;;;;;;;6244204;23;20114;-82
2022/10/28 11:10:24;;;;;;;35.63;13.38;;;;;;;;;;6270411;22;19996;-81
2022/10/28 11:12:54;;;;;;;24.83;12.73;;;;;;;;;;6220436;23;20027;-83
2022/10/28 11:15:30;;;;;;;35.45;13.30;;;;;;;;;;6194736;23;20008;-82
2022/10/28 11:18:00;;;;;;;31.65;14.40;;;;;;;;;;6219358;23;20004;-83
2022/10/28 11:20:30;;;;;;;26.35;13.40;;;;;;;;;;6246305;22;20007;-82
2022/10/28 11:22:55;;;;;;;22.90;11.05;;;;;;;;;;6223165;23;20015;-82
2022/10/28 11:25:44;;;;;;;36.03;13.48;;;;;;;;;;6253435;23;20000;-82
2022/10/28 11:28:25;;;;;;;29.77;12.73;;;;;;;;;;6227890;23;20008;-82
2022/10/28 11:30:56;;;;;;;28.17;14.75;;;;;;;;;;6244994;23;19996;-82
2022/10/28 11:33:43;;;;;;;24.08;12.45;;;;;;;;;;6245959;22;20004;-82
2022/10/28 11:36:09;;;;;;;24.90;12.45;;;;;;;;;;6222759;23;20050;-83
2022/10/28 11:38:38;;;;;;;25.80;12.38;;;;;;;;;;6245022;23;20404;-83
2022/10/28 11:41:25;;;;;;;18.00;8.53;;;;;;;;;;6218472;23;20054;-82
2022/10/28 11:43:56;;;;;;;14.95;8.00;;;;;;;;;;6248287;23;20010;-83
2022/10/28 11:46:44;;;;;;;16.73;8.05;;;;;;;;;;6229366;23;20019;-83
2022/10/28 11:49:35;;;;;;;25.48;8.85;;;;;;;;;;6244326;23;20012;-82
2022/10/28 11:52:20;;;;;;;23.08;8.93;;;;;;;;;;6218340;23;20004;-82
2022/10/28 11:55:06;;;;;;;26.90;10.00;;;;;;;;;;6245411;22;20023;-82
2022/10/28 11:57:57;;;;;;;23.83;10.05;;;;;;;;;;6243807;23;20074;-82
2022/10/28 12:00:24;;;;;;;;;;;;;;;;;;6243927;23;20008;-83
2022/10/28 12:03:20;;;;;;;23.58;9.68;;;;;;;;;;6243962;23;19971;-82
2022/10/28 12:05:55;;;;;;;21.92;10.30;;;;;;;;;;6252887;23;20202;-83
2022/10/28 12:08:24;;;;;;;22.98;10.80;;;;;;;;;;6222050;23;20450;-83
2022/10/28 12:10:50;;;;;;;23.95;10.43;;;;;;;;;;6245206;22;20028;-82
2022/10/28 12:13:42;;;;;;;22.83;10.18;;;;;;;;;;6245728;22;20115;-81
2022/10/28 12:16:37;;;;;;;20.63;10.02;;;;;;;;;;6243709;23;19993;-83
2022/10/28 12:19:11;;;;;;;23.27;11.80;;;;;;;;;;6221102;23;20011;-82
2022/10/28 12:21:44;;;;;;;25.63;11.63;;;;;;;;;;6219312;23;19997;-82
2022/10/28 12:24:18;;;;;;;28.13;11.00;;;;;;;;;;6219256;23;20472;-82
2022/10/28 12:26:51;;;;;;;20.67;10.13;;;;;;;;;;6246025;23;20479;-81
2022/10/28 12:29:21;;;;;;;22.80;9.98;;;;;;;;;;6222048;23;20007;-83
2022/10/28 12:32:07;;;;;;;19.10;10.15;;;;;;;;;;6243553;23;20007;-82
2022/10/28 12:34:51;;;;;;;31.77;10.65;;;;;;;;;;6202882;22;20005;-84
2022/10/28 12:37:20;;;;;;;28.48;10.50;;;;;;;;;;6225499;23;20004;-83
2022/10/28 12:39:55;;;;;;;25.50;11.05;;;;;;;;;;6225706;23;20058;-84
2022/10/28 12:42:28;;;;;;;26.60;12.00;;;;;;;;;;6254641;22;20000;-84
2022/10/28 12:44:54;;;;;;;25.48;11.68;;;;;;;;;;6227907;23;20035;-85
2022/10/28 12:48:23;;;;;;;23.45;10.57;;;;;;;;;;6217377;23;20011;-83
2022/10/28 12:51:09;;;;;;;22.85;11.00;;;;;;;;;;6104460;23;20360;-83
2022/10/28 12:53:57;;;;;;;18.83;10.40;;;;;;;;;;6147128;23;20008;-84
2022/10/28 12:56:30;;;;;;;21.30;10.35;;;;;;;;;;6243059;23;20103;-83
2022/10/28 12:59:16;;;;;;;19.13;10.00;;;;;;;;;;6217625;23;20011;-84
2022/10/28 13:01:46;;;;;;;25.13;9.52;;;;;;;;;;6217566;23;20006;-83
2022/10/28 13:04:11;;;;;;;15.68;9.05;;;;;;;;;;6217796;23;20058;-83
2022/10/28 13:06:40;;;;;;;17.65;9.27;;;;;;;;;;6217693;23;20008;-85
2022/10/28 13:09:34;;;;;;;17.05;8.70;;;;;;;;;;6243380;23;20420;-84
2022/10/28 13:12:19;;;;;;;24.10;8.90;;;;;;;;;;6243344;23;20012;-85
2022/10/28 13:15:11;;;;;;;19.80;9.02;;;;;;;;;;6242693;23;20006;-84
2022/10/28 13:18:14;;;;;;;22.05;8.70;;;;;;;;;;6242525;23;20373;-85
2022/10/28 13:20:46;;;;;;;21.52;9.40;;;;;;;;;;6244323;23;20034;-84
2022/10/28 13:23:46;;;;;;;;;;;;;;;;;;;;;
2022/10/28 13:26:35;;;;;;;18.77;9.07;;;;;;;;;;6243256;23;20439;-84
2022/10/28 13:29:06;;;;;;;21.65;9.70;;;;;;;;;;6202621;23;20028;-86
2022/10/28 13:31:43;;;;;;;20.80;8.77;;;;;;;;;;6223680;23;20031;-84
2022/10/28 13:34:08;;;;;;;20.98;8.63;;;;;;;;;;6245955;23;20000;-83
2022/10/28 13:36:41;;;;;;;17.33;8.90;;;;;;;;;;6252061;23;20450;-84
2022/10/28 13:39:34;;;;;;;22.58;9.13;;;;;;;;;;6246353;23;20004;-82
2022/10/28 13:42:22;;;;;;;29.02;8.32;;;;;;;;;;6246894;23;20028;-83
2022/10/28 13:44:57;;;;;;;30.60;9.25;;;;;;;;;;6243845;22;20430;-84
2022/10/28 13:47:26;;;;;;;20.08;8.60;;;;;;;;;;6216492;23;20087;-81
2022/10/28 13:50:15;;;;;;;23.85;8.82;;;;;;;;;;6243584;22;20000;-83
2022/10/28 13:52:48;;;;;;;20.13;9.00;;;;;;;;;;6244489;22;20003;-83
2022/10/28 13:55:39;;;;;;;23.88;8.88;;;;;;;;;;6241955;23;20000;-82
2022/10/28 13:58:05;;;;;;;17.80;8.65;;;;;;;;;;6241973;23;20133;-83
2022/10/28 14:00:30;;;;;;;28.85;8.73;;;;;;;;;;6242974;23;20000;-83
2022/10/28 14:02:56;;;;;;;26.70;8.38;;;;;;;;;;6244154;23;20004;-83
2022/10/28 14:05:31;;;;;;;16.77;8.27;;;;;;;;;;6245290;22;20004;-84
2022/10/28 14:08:03;;;;;;;16.60;8.80;;;;;;;;;;6244249;23;20035;-83
2022/10/28 14:10:29;;;;;;;18.02;8.65;;;;;;;;;;6219392;23;20039;-83
2022/10/28 14:13:14;;;;;;;20.70;8.15;;;;;;;;;;6246262;22;20031;-82
2022/10/28 14:15:40;;;;;;;16.02;9.15;;;;;;;;;;6244912;23;20023;-84
2022/10/28 14:18:19;;;;;;;19.90;8.93;;;;;;;;;;6244274;23;20011;-83
2022/10/28 14:20:47;;;;;;;22.83;8.60;;;;;;;;;;6221861;23;20327;-83
2022/10/28 14:23:19;;;;;;;27.23;13.35;;;;;;;;;;6246269;23;20032;-83
2022/10/28 14:25:50;;;;;;;30.17;18.25;;;;;;;;;;6245196;23;19996;-82
2022/10/28 14:28:28;;;;;;;43.15;19.02;;;;;;;;;;6245592;22;20000;-82
2022/10/28 14:31:13;;;;;;;19.92;9.57;;;;;;;;;;6245013;23;20060;-84
2022/10/28 14:33:44;;;;;;;33.20;10.88;;;;;;;;;;6244850;23;20004;-84
2022/10/28 14:36:16;;;;;;;21.00;9.70;;;;;;;;;;6251979;22;20004;-82
2022/10/28 14:39:02;;;;;;;23.73;13.77;;;;;;;;;;6245204;23;20138;-84
2022/10/28 14:42:05;;;;;;;28.10;11.10;;;;;;;;;;6244029;23;20054;-83
2022/10/28 14:44:48;;;;;;;20.25;10.55;;;;;;;;;;6244925;23;20000;-83
2022/10/28 14:47:45;;;;;;;26.10;11.50;;;;;;;;;;6244563;23;20039;-83
2022/10/28 14:50:33;;;;;;;27.13;10.98;;;;;;;;;;6243750;23;20004;-83
2022/10/28 14:52:58;;;;;;;27.17;11.40;;;;;;;;;;6244224;23;19996;-85
2022/10/28 14:55:29;;;;;;;23.27;9.90;;;;;;;;;;6227043;23;19992;-85
2022/10/28 14:58:11;;;;;;;25.60;9.98;;;;;;;;;;6245632;23;20475;-85
2022/10/28 15:00:36;;;;;;;19.45;8.85;;;;;;;;;;6243600;23;20019;-86
2022/10/28 15:03:02;;;;;;;20.45;8.75;;;;;;;;;;6218477;23;20079;-86
2022/10/28 15:05:29;;;;;;;18.42;8.90;;;;;;;;;;6193074;23;20007;-86
2022/10/28 15:07:57;;;;;;;18.75;8.93;;;;;;;;;;6219060;23;20432;-89
2022/10/28 15:10:25;;;;;;;17.92;8.32;;;;;;;;;;6245261;22;20694;-89
2022/10/28 15:12:53;;;;;;;20.85;8.13;;;;;;;;;;6250868;23;20006;-87